Time;durP1;ratioP1;P1;durP2;ratioP2;P2;SDS_P1;SDS_P2;PMS_P1;PMS_P2;Temp;Humidity;BMP_temperature;BMP_pressure;BME280_temperature;BME280_humidity;BME280_pressure;Samples;Min_cycle;Max_cycle;Signal;HPM_P1;HPM_P2
2024/02/28 06:02:10;;;;;;;38.72;22.17;;;7.90;92.10;;;;;;4085056;29;20187;-73
2024/02/28 06:04:12;;;;;;;36.53;21.40;;;7.90;92.00;;;;;;4086830;29;20445;-73
2024/02/28 06:06:14;;;;;;;39.55;22.63;;;7.90;92.00;;;;;;4086770;29;20079;-74
2024/02/28 06:08:16;;;;;;;35.30;21.10;;;7.90;91.90;;;;;;4086580;29;20508;-74
2024/02/28 06:10:18;;;;;;;36.50;21.67;;;7.90;92.10;;;;;;4086379;29;20051;-74
2024/02/28 06:12:20;;;;;;;35.92;20.65;;;7.90;91.90;;;;;;4086464;29;20069;-74
2024/02/28 06:14:21;;;;;;;34.80;20.40;;;7.80;92.00;;;;;;4086711;29;20048;-74
2024/02/28 06:16:23;;;;;;;35.78;21.08;;;7.80;92.00;;;;;;4086610;29;20044;-73
2024/02/28 06:18:26;;;;;;;38.80;21.65;;;7.80;92.10;;;;;;4086606;29;20457;-75
2024/02/28 06:20:28;;;;;;;36.53;21.35;;;7.90;92.20;;;;;;4086570;29;20485;-72
2024/02/28 06:22:30;;;;;;;37.08;21.25;;;7.80;92.20;;;;;;4086349;29;20135;-74
2024/02/28 06:24:35;;;;;;;38.63;21.25;;;7.70;92.30;;;;;;4086311;29;20052;-72
2024/02/28 06:26:37;;;;;;;37.03;21.15;;;7.70;92.40;;;;;;4086284;29;20150;-72
2024/02/28 06:28:38;;;;;;;36.20;21.42;;;7.70;92.50;;;;;;4086179;29;20115;-72
2024/02/28 06:30:40;;;;;;;35.50;19.27;;;7.70;92.40;;;;;;4086292;29;20099;-74
2024/02/28 06:32:42;;;;;;;35.67;20.30;;;7.70;92.40;;;;;;4085910;29;20091;-73
2024/02/28 06:34:45;;;;;;;36.08;20.33;;;7.70;92.30;;;;;;4086144;29;20099;-73
2024/02/28 06:36:47;;;;;;;37.85;20.30;;;7.70;92.30;;;;;;4085937;29;20051;-73
2024/02/28 06:38:49;;;;;;;33.97;19.65;;;7.60;92.40;;;;;;4085986;29;20059;-74
2024/02/28 06:40:50;;;;;;;36.03;18.95;;;7.60;92.40;;;;;;4086124;29;20048;-73
2024/02/28 06:42:52;;;;;;;35.67;19.52;;;7.60;92.10;;;;;;4085998;29;20087;-73
2024/02/28 06:44:54;;;;;;;38.53;20.65;;;7.60;92.20;;;;;;4086112;29;20048;-72
2024/02/28 06:46:56;;;;;;;36.60;20.00;;;7.70;92.30;;;;;;4085897;29;20126;-74
2024/02/28 06:48:57;;;;;;;37.08;20.38;;;7.70;92.40;;;;;;4085876;29;20056;-74
2024/02/28 06:51:01;;;;;;;32.97;19.08;;;7.60;92.50;;;;;;4085934;29;20047;-74
2024/02/28 06:53:02;;;;;;;36.75;19.48;;;7.60;92.60;;;;;;4085897;29;20089;-74
2024/02/28 06:55:09;;;;;;;36.63;21.02;;;7.70;92.60;;;;;;4085920;29;20083;-73
2024/02/28 06:57:12;;;;;;;39.92;20.42;;;7.60;92.40;;;;;;4085901;29;20052;-74
2024/02/28 06:59:14;;;;;;;33.78;19.65;;;7.60;92.80;;;;;;4085624;29;20481;-74
2024/02/28 07:01:16;;;;;;;35.20;19.55;;;7.60;92.60;;;;;;4085154;29;20056;-74
2024/02/28 07:03:18;;;;;;;36.78;20.13;;;7.60;92.70;;;;;;4085539;29;20103;-74
2024/02/28 07:05:20;;;;;;;35.55;20.10;;;7.60;92.50;;;;;;4085528;29;20044;-74
2024/02/28 07:07:23;;;;;;;38.92;21.75;;;7.60;92.50;;;;;;4085722;29;20506;-74
2024/02/28 07:09:25;;;;;;;35.17;20.35;;;7.60;92.50;;;;;;4085543;29;20056;-74
2024/02/28 07:11:27;;;;;;;32.53;18.55;;;7.60;92.50;;;;;;4085912;29;20048;-74
2024/02/28 07:13:29;;;;;;;36.78;20.42;;;7.70;92.40;;;;;;4085528;29;20055;-73
2024/02/28 07:15:31;;;;;;;36.78;19.75;;;7.70;92.30;;;;;;4085418;29;20107;-74
2024/02/28 07:17:32;;;;;;;35.45;19.60;;;7.60;92.30;;;;;;4085558;29;20051;-74
2024/02/28 07:19:33;;;;;;;35.15;20.35;;;7.60;92.30;;;;;;4085430;29;20048;-73
2024/02/28 07:21:37;;;;;;;35.15;19.52;;;7.70;92.20;;;;;;4085591;29;20052;-74
2024/02/28 07:23:41;;;;;;;34.78;18.60;;;7.70;92.10;;;;;;4069875;29;20135;-73
2024/02/28 07:25:43;;;;;;;32.47;19.08;;;7.70;92.00;;;;;;4069599;29;20123;-73
2024/02/28 07:27:45;;;;;;;35.30;18.95;;;7.80;92.00;;;;;;4078433;29;20051;-73
2024/02/28 07:29:47;;;;;;;35.28;20.27;;;7.80;91.90;;;;;;4085500;29;20501;-74
2024/02/28 07:31:50;;;;;;;35.00;19.17;;;7.80;92.00;;;;;;4085203;29;20386;-74
2024/02/28 07:33:52;;;;;;;36.53;19.95;;;7.80;92.20;;;;;;4085033;29;20040;-74
2024/02/28 07:35:54;;;;;;;33.03;18.90;;;7.80;92.00;;;;;;4085300;29;20107;-74
2024/02/28 07:37:55;;;;;;;33.90;19.02;;;7.80;91.70;;;;;;4085299;29;20474;-74
2024/02/28 07:39:58;;;;;;;34.55;19.40;;;7.80;92.00;;;;;;4085300;29;20048;-73
2024/02/28 07:42:00;;;;;;;32.13;18.65;;;7.80;91.80;;;;;;4085267;29;20383;-74
2024/02/28 07:44:01;;;;;;;33.80;19.10;;;7.90;91.80;;;;;;4085202;29;20044;-73
2024/02/28 07:46:04;;;;;;;35.53;19.05;;;7.90;91.40;;;;;;4085221;29;20043;-73
2024/02/28 07:48:06;;;;;;;33.10;18.85;;;7.90;91.40;;;;;;4084523;29;20083;-73
2024/02/28 07:50:09;;;;;;;31.98;18.23;;;7.90;91.50;;;;;;4085151;29;20122;-74
2024/02/28 07:52:10;;;;;;;34.20;19.20;;;7.90;91.40;;;;;;4084936;29;20051;-73
2024/02/28 07:54:12;;;;;;;33.47;18.92;;;8.00;91.10;;;;;;4085037;29;20106;-73
2024/02/28 07:56:18;;;;;;;34.80;19.00;;;8.00;91.00;;;;;;4085096;29;20052;-73
2024/02/28 07:58:20;;;;;;;32.95;19.50;;;7.90;90.90;;;;;;4084989;29;20047;-73
2024/02/28 08:00:22;;;;;;;32.42;18.55;;;7.90;91.00;;;;;;4084588;29;20480;-74
2024/02/28 08:02:24;;;;;;;34.58;18.80;;;7.90;91.00;;;;;;4084976;29;20106;-73
2024/02/28 08:04:24;;;;;;;32.03;18.92;;;7.90;91.10;;;;;;4084479;29;20178;-73
2024/02/28 08:06:26;;;;;;;36.38;19.52;;;8.00;91.00;;;;;;4084641;29;20511;-73
2024/02/28 08:08:28;;;;;;;35.10;19.80;;;8.00;90.90;;;;;;4084651;29;20063;-73
2024/02/28 08:10:30;;;;;;;35.95;20.15;;;8.10;91.10;;;;;;4084703;29;20048;-73
2024/02/28 08:12:34;;;;;;;35.72;19.63;;;8.10;91.00;;;;;;4084069;29;20055;-73
2024/02/28 08:14:36;;;;;;;31.25;18.48;;;8.10;90.90;;;;;;4084662;29;20051;-73
2024/02/28 08:16:37;;;;;;;35.10;18.85;;;8.10;90.90;;;;;;4084663;29;20545;-73
2024/02/28 08:18:39;;;;;;;33.15;19.70;;;8.10;91.00;;;;;;4084732;29;20060;-73
2024/02/28 08:20:40;;;;;;;35.03;19.38;;;8.10;91.00;;;;;;4084644;29;20416;-73
2024/02/28 08:22:42;;;;;;;33.03;19.35;;;8.00;91.10;;;;;;4084597;29;20047;-73
2024/02/28 08:24:44;;;;;;;35.53;19.08;;;8.10;91.40;;;;;;4084458;29;20052;-73
2024/02/28 08:26:46;;;;;;;31.65;18.35;;;8.10;91.00;;;;;;4084636;29;20481;-74
2024/02/28 08:28:49;;;;;;;34.05;19.30;;;8.10;90.80;;;;;;4084552;29;20048;-73
2024/02/28 08:30:51;;;;;;;35.70;20.20;;;8.10;90.90;;;;;;4084480;29;20158;-74
2024/02/28 08:32:53;;;;;;;31.45;18.27;;;8.20;90.90;;;;;;4084202;29;20060;-74
2024/02/28 08:34:56;;;;;;;32.65;18.77;;;8.10;90.80;;;;;;4084651;29;20055;-74
2024/02/28 08:36:58;;;;;;;32.17;19.33;;;8.20;91.00;;;;;;4084678;29;20457;-73
2024/02/28 08:38:59;;;;;;;35.50;19.00;;;8.20;91.10;;;;;;4084478;29;20055;-73
2024/02/28 08:41:00;;;;;;;32.33;18.83;;;8.10;90.90;;;;;;4084430;29;20056;-73
2024/02/28 08:43:02;;;;;;;33.42;19.67;;;8.10;91.10;;;;;;4084471;29;20446;-73
2024/02/28 08:45:07;;;;;;;36.78;20.60;;;8.10;90.90;;;;;;4084405;29;20107;-74
2024/02/28 08:47:10;;;;;;;30.90;17.65;;;8.00;91.20;;;;;;4084556;29;20052;-73
2024/02/28 08:49:11;;;;;;;35.03;19.58;;;8.10;91.10;;;;;;4084399;29;20052;-73
2024/02/28 08:51:13;;;;;;;33.95;19.40;;;8.00;91.00;;;;;;4084544;29;20111;-73
2024/02/28 08:53:15;;;;;;;37.80;19.88;;;8.00;91.30;;;;;;4084505;29;20043;-73
2024/02/28 08:55:18;;;;;;;34.10;18.02;;;8.00;91.30;;;;;;4084350;29;20051;-73
2024/02/28 08:57:22;;;;;;;34.10;19.67;;;8.00;91.20;;;;;;4084104;29;20051;-74
2024/02/28 08:59:24;;;;;;;31.90;18.45;;;8.00;91.20;;;;;;4084567;29;20442;-73
2024/02/28 09:01:27;;;;;;;32.28;19.05;;;8.00;91.20;;;;;;4084423;29;20517;-73
2024/02/28 09:03:29;;;;;;;36.63;19.15;;;8.10;91.10;;;;;;4084077;29;20102;-73
2024/02/28 09:05:31;;;;;;;33.33;19.75;;;8.00;91.00;;;;;;4084304;29;20051;-74
2024/02/28 09:07:31;;;;;;;29.67;18.38;;;8.10;91.00;;;;;;4084213;29;20048;-74
2024/02/28 09:09:37;;;;;;;31.10;19.17;;;8.10;91.00;;;;;;4084317;29;20055;-74
2024/02/28 09:11:39;;;;;;;35.20;19.73;;;8.10;91.00;;;;;;4084466;29;20075;-73
2024/02/28 09:13:41;;;;;;;31.42;18.48;;;8.10;91.00;;;;;;4084373;29;20051;-74
2024/02/28 09:15:43;;;;;;;30.65;18.52;;;8.20;91.00;;;;;;4084424;29;20465;-73
2024/02/28 09:17:46;;;;;;;33.97;18.80;;;8.10;91.00;;;;;;4084094;29;20052;-73
2024/02/28 09:19:48;;;;;;;31.02;18.58;;;8.10;90.90;;;;;;4084170;29;20056;-74
2024/02/28 09:21:50;;;;;;;29.60;18.65;;;8.20;90.90;;;;;;4084255;29;20107;-74
2024/02/28 09:23:51;;;;;;;31.80;19.50;;;8.10;90.70;;;;;;4084694;29;20111;-74
2024/02/28 09:25:54;;;;;;;31.20;17.88;;;8.10;90.90;;;;;;4086979;29;20449;-73
2024/02/28 09:27:57;;;;;;;31.25;17.33;;;8.10;90.90;;;;;;4087231;29;20052;-74
2024/02/28 09:29:58;;;;;;;32.92;18.55;;;8.10;90.90;;;;;;4087108;29;20176;-73
2024/02/28 09:32:00;;;;;;;28.70;18.05;;;8.20;90.70;;;;;;4087175;29;20067;-74
2024/02/28 09:34:07;;;;;;;30.20;18.25;;;8.10;90.80;;;;;;4087105;29;20196;-73
2024/02/28 09:36:09;;;;;;;29.50;18.27;;;8.20;90.70;;;;;;4087021;29;20069;-73
2024/02/28 09:38:12;;;;;;;29.80;17.80;;;8.20;90.50;;;;;;4086958;29;20091;-73
2024/02/28 09:40:14;;;;;;;31.08;18.35;;;8.10;90.50;;;;;;4086917;29;20402;-73
2024/02/28 09:42:16;;;;;;;33.55;18.60;;;8.20;90.50;;;;;;4086823;29;20051;-73
2024/02/28 09:44:17;;;;;;;28.05;17.58;;;8.10;90.50;;;;;;4086740;29;20091;-73
2024/02/28 09:46:19;;;;;;;38.58;17.50;;;8.20;90.60;;;;;;4086691;29;20052;-73
2024/02/28 09:48:21;;;;;;;32.30;17.67;;;8.20;90.50;;;;;;4086739;29;20051;-73
2024/02/28 09:50:27;;;;;;;31.13;18.45;;;8.30;90.30;;;;;;4086727;29;20055;-73
2024/02/28 09:52:28;;;;;;;31.17;17.80;;;8.20;90.00;;;;;;4086573;29;20047;-73
2024/02/28 09:54:30;;;;;;;28.48;17.52;;;8.10;90.00;;;;;;4086819;29;20052;-73
2024/02/28 09:56:33;;;;;;;29.58;16.65;;;8.10;90.20;;;;;;4086516;29;20052;-73
2024/02/28 09:58:35;;;;;;;28.80;17.02;;;8.10;90.00;;;;;;4085196;29;20663;-74
2024/02/28 10:00:38;;;;;;;28.95;17.52;;;8.20;89.70;;;;;;4086458;29;20143;-74
2024/02/28 10:02:43;;;;;;;41.85;16.88;;;8.20;90.00;;;;;;4086586;29;20051;-73
2024/02/28 10:04:44;;;;;;;29.88;16.58;;;8.20;89.90;;;;;;4086699;29;20047;-73
2024/02/28 10:06:48;;;;;;;26.23;16.10;;;8.30;89.80;;;;;;4086625;29;20457;-73
2024/02/28 10:08:50;;;;;;;28.85;16.52;;;8.30;89.00;;;;;;4086524;29;20062;-73
2024/02/28 10:10:54;;;;;;;28.05;16.63;;;8.30;89.60;;;;;;4086553;29;20386;-73
2024/02/28 10:12:56;;;;;;;29.00;16.63;;;8.30;89.00;;;;;;4086578;29;20054;-74
2024/02/28 10:15:00;;;;;;;33.50;17.52;;;8.30;88.90;;;;;;4086459;29;20091;-73
2024/02/28 10:17:03;;;;;;;113.70;20.83;;;8.30;88.80;;;;;;4086400;29;20055;-73
2024/02/28 10:19:06;;;;;;;64.05;19.75;;;8.40;89.30;;;;;;4086486;29;20067;-74
2024/02/28 10:21:07;;;;;;;115.53;22.50;;;8.40;88.60;;;;;;4086141;29;20048;-74
2024/02/28 10:23:10;;;;;;;100.00;20.65;;;8.50;88.50;;;;;;4086250;29;20051;-73
2024/02/28 10:25:12;;;;;;;41.40;17.60;;;8.50;88.30;;;;;;4086321;29;20548;-74
2024/02/28 10:27:19;;;;;;;36.90;18.08;;;8.50;88.60;;;;;;4086314;29;20445;-74
2024/02/28 10:29:20;;;;;;;32.38;16.55;;;8.60;88.80;;;;;;4085997;29;20183;-73
2024/02/28 10:31:22;;;;;;;33.10;18.15;;;8.60;88.70;;;;;;4086108;29;20051;-74
2024/02/28 10:33:28;;;;;;;29.00;17.23;;;8.60;87.80;;;;;;4086333;29;20099;-73
2024/02/28 10:35:30;;;;;;;30.00;17.13;;;8.50;87.60;;;;;;4085767;29;20077;-73
2024/02/28 10:37:35;;;;;;;30.20;17.73;;;8.60;87.70;;;;;;4085851;29;20095;-74
2024/02/28 10:39:39;;;;;;;29.90;17.77;;;8.50;87.20;;;;;;4086121;29;20064;-73
2024/02/28 10:41:41;;;;;;;29.92;18.13;;;8.40;87.70;;;;;;4085795;29;20115;-74
2024/02/28 10:43:45;;;;;;;27.42;16.92;;;8.50;88.00;;;;;;4085702;29;20051;-73
2024/02/28 10:45:48;;;;;;;28.35;16.20;;;8.50;87.70;;;;;;4086028;29;20116;-73
2024/02/28 10:47:51;;;;;;;29.17;16.48;;;8.50;87.70;;;;;;4085798;29;20068;-73
2024/02/28 10:49:52;;;;;;;29.70;16.80;;;8.60;88.30;;;;;;4085841;29;20170;-73
2024/02/28 10:51:57;;;;;;;28.13;16.25;;;8.60;88.10;;;;;;4086036;29;20446;-74
2024/02/28 10:54:11;;;;;;;31.35;17.83;;;8.70;88.20;;;;;;4085889;29;20059;-73
2024/02/28 10:56:17;;;;;;;31.38;17.60;;;8.70;87.40;;;;;;4073994;29;20138;-74
2024/02/28 10:58:20;;;;;;;31.55;17.42;;;8.60;87.20;;;;;;4068099;29;20056;-73
2024/02/28 11:00:23;;;;;;;30.90;17.30;;;8.60;87.10;;;;;;4067551;29;20071;-74
2024/02/28 11:02:26;;;;;;;29.08;17.08;;;8.70;87.30;;;;;;4067896;29;20127;-73
2024/02/28 11:04:28;;;;;;;29.15;16.38;;;8.70;86.90;;;;;;4067747;29;20051;-73
2024/02/28 11:06:30;;;;;;;31.88;17.80;;;8.70;86.90;;;;;;4067741;29;20052;-74
2024/02/28 11:08:35;;;;;;;28.13;16.65;;;8.70;86.50;;;;;;4067471;29;20099;-74
2024/02/28 11:10:41;;;;;;;30.92;18.38;;;8.70;86.50;;;;;;4065765;29;20154;-73
2024/02/28 11:12:55;;;;;;;30.88;17.23;;;8.70;86.40;;;;;;4068236;29;20123;-73
2024/02/28 11:15:02;;;;;;;30.17;17.48;;;8.50;86.70;;;;;;4070823;29;20044;-73
2024/02/28 11:17:06;;;;;;;30.33;17.75;;;8.50;87.50;;;;;;4083354;29;20048;-73
2024/02/28 11:19:08;;;;;;;29.52;17.38;;;8.60;87.00;;;;;;4083123;29;20080;-74
2024/02/28 11:21:16;;;;;;;29.50;17.67;;;8.70;87.00;;;;;;4083415;29;20087;-73
2024/02/28 11:23:18;;;;;;;30.05;17.38;;;8.70;86.60;;;;;;4083292;29;20079;-74
2024/02/28 11:25:20;;;;;;;30.35;17.13;;;8.70;86.80;;;;;;4083365;29;20103;-73
2024/02/28 11:27:21;;;;;;;29.40;17.92;;;8.70;86.60;;;;;;4083104;29;20052;-73
2024/02/28 11:29:26;;;;;;;33.53;18.42;;;8.70;86.50;;;;;;4083074;29;20052;-73
2024/02/28 11:31:27;;;;;;;32.40;18.55;;;8.60;86.70;;;;;;4083021;29;20051;-73
2024/02/28 11:33:29;;;;;;;30.33;17.48;;;8.70;87.00;;;;;;4083115;29;20059;-73
2024/02/28 11:35:31;;;;;;;29.58;17.67;;;8.70;87.00;;;;;;4083216;29;20549;-73
2024/02/28 11:37:34;;;;;;;30.25;17.15;;;8.80;87.10;;;;;;4083219;29;20170;-74
2024/02/28 11:39:36;;;;;;;30.98;17.90;;;8.80;86.60;;;;;;4083418;29;20387;-73
2024/02/28 11:41:39;;;;;;;30.38;18.05;;;8.80;86.30;;;;;;4083119;29;20043;-74
2024/02/28 11:43:41;;;;;;;31.17;17.92;;;8.80;86.30;;;;;;4082627;29;20055;-73
2024/02/28 11:45:46;;;;;;;30.42;17.35;;;8.80;86.40;;;;;;4083089;29;20051;-73
2024/02/28 11:47:48;;;;;;;29.65;17.98;;;8.80;86.50;;;;;;4082789;29;20055;-73
2024/02/28 11:49:49;;;;;;;33.78;17.63;;;8.70;86.00;;;;;;4082792;29;20107;-73
2024/02/28 11:51:51;;;;;;;31.83;17.77;;;8.70;86.70;;;;;;4083076;29;20051;-74
2024/02/28 11:53:52;;;;;;;31.20;17.50;;;8.70;86.20;;;;;;4082859;29;20083;-73
2024/02/28 11:55:55;;;;;;;29.27;17.25;;;8.70;86.30;;;;;;4082440;29;20055;-73
2024/02/28 11:57:57;;;;;;;29.65;17.13;;;8.70;86.30;;;;;;4082824;29;20457;-74
2024/02/28 11:59:58;;;;;;;33.10;17.98;;;8.70;86.70;;;;;;4082801;29;20217;-74
2024/02/28 12:02:02;;;;;;;30.95;17.58;;;8.70;86.80;;;;;;4082520;29;20059;-74
2024/02/28 12:04:04;;;;;;;32.17;18.17;;;8.70;86.80;;;;;;4082662;29;20059;-73
2024/02/28 12:06:06;;;;;;;30.05;17.83;;;8.70;86.90;;;;;;4082649;29;20047;-73
2024/02/28 12:08:09;;;;;;;35.05;18.23;;;8.60;86.80;;;;;;4082448;29;20351;-73
2024/02/28 12:10:11;;;;;;;31.10;17.65;;;8.60;87.70;;;;;;4080760;29;20313;-73
2024/02/28 12:12:14;;;;;;;29.05;17.02;;;8.60;86.80;;;;;;4082586;29;20044;-72
2024/02/28 12:14:16;;;;;;;28.35;16.70;;;8.60;87.20;;;;;;4082630;29;20047;-71
2024/02/28 12:16:17;;;;;;;29.10;17.42;;;8.60;87.20;;;;;;4081933;29;20055;-72
2024/02/28 12:18:21;;;;;;;30.58;17.52;;;8.70;87.20;;;;;;4082436;29;20047;-74
2024/02/28 12:20:23;;;;;;;28.08;16.90;;;8.70;87.20;;;;;;4082101;29;20059;-74
2024/02/28 12:22:25;;;;;;;26.50;16.50;;;8.80;86.70;;;;;;4082298;29;20063;-73
2024/02/28 12:24:27;;;;;;;32.22;19.25;;;8.80;86.10;;;;;;4082370;29;20110;-73
2024/02/28 12:26:28;;;;;;;31.08;16.88;;;8.80;86.00;;;;;;4082125;29;20051;-73
2024/02/28 12:28:30;;;;;;;27.80;15.52;;;8.80;86.00;;;;;;4082550;29;20099;-73
2024/02/28 12:30:32;;;;;;;29.00;17.38;;;8.80;85.70;;;;;;4082164;29;20073;-73
2024/02/28 12:32:34;;;;;;;25.77;15.43;;;8.80;86.50;;;;;;4082099;29;20107;-74
2024/02/28 12:34:37;;;;;;;28.80;16.27;;;8.80;86.80;;;;;;4082386;29;20094;-73
2024/02/28 12:36:39;;;;;;;27.80;16.00;;;8.90;86.30;;;;;;4082364;29;20047;-74
2024/02/28 12:38:41;;;;;;;27.95;16.48;;;8.90;85.70;;;;;;4082484;29;20508;-74
2024/02/28 12:40:43;;;;;;;28.92;15.55;;;9.00;86.00;;;;;;4082380;29;20135;-73
2024/02/28 12:42:44;;;;;;;28.67;15.90;;;9.00;85.30;;;;;;4082410;29;20102;-73
2024/02/28 12:44:46;;;;;;;28.20;16.27;;;8.90;85.50;;;;;;4081926;29;20401;-73
2024/02/28 12:46:48;;;;;;;30.00;18.02;;;8.90;85.90;;;;;;4082166;29;20111;-74
2024/02/28 12:48:49;;;;;;;34.00;19.65;;;8.90;85.90;;;;;;4082378;29;20056;-73
2024/02/28 12:50:52;;;;;;;29.70;17.65;;;8.90;85.40;;;;;;4081501;29;20099;-73
2024/02/28 12:52:54;;;;;;;29.27;17.15;;;8.90;85.70;;;;;;4082203;29;20458;-74
2024/02/28 12:54:56;;;;;;;29.35;17.27;;;9.00;85.30;;;;;;4082009;29;20103;-74
2024/02/28 12:56:56;;;;;;;32.42;18.10;;;8.90;86.30;;;;;;4082324;29;20170;-73
2024/02/28 12:58:58;;;;;;;32.15;17.80;;;8.90;86.80;;;;;;4082838;29;20055;-74
2024/02/28 13:01:00;;;;;;;28.60;16.75;;;9.00;86.30;;;;;;4085337;29;20056;-74
2024/02/28 13:03:01;;;;;;;27.48;15.95;;;9.00;85.40;;;;;;4085264;29;20059;-73
2024/02/28 13:05:04;;;;;;;26.85;15.50;;;9.00;84.90;;;;;;4085380;29;20047;-73
2024/02/28 13:07:07;;;;;;;26.13;15.93;;;9.00;84.40;;;;;;4068980;29;20090;-73
2024/02/28 13:09:12;;;;;;;28.73;16.45;;;8.90;84.70;;;;;;4067725;29;20490;-73
2024/02/28 13:11:14;;;;;;;26.85;15.45;;;8.90;85.00;;;;;;4080418;29;20056;-73
2024/02/28 13:13:15;;;;;;;29.00;16.33;;;8.90;85.30;;;;;;4085389;29;20556;-74
2024/02/28 13:15:17;;;;;;;26.48;15.73;;;8.90;85.00;;;;;;4085213;29;20453;-74
2024/02/28 13:17:19;;;;;;;25.25;15.18;;;8.90;85.10;;;;;;4085347;29;20460;-74
2024/02/28 13:19:20;;;;;;;27.27;15.07;;;9.00;84.90;;;;;;4084935;29;20793;-74
2024/02/28 13:21:22;;;;;;;28.08;15.50;;;9.00;84.70;;;;;;4085297;29;20114;-75
2024/02/28 13:23:26;;;;;;;29.10;16.13;;;8.90;84.40;;;;;;4084811;29;20051;-74
2024/02/28 13:25:28;;;;;;;27.15;14.95;;;8.90;84.40;;;;;;4084975;29;20107;-73
2024/02/28 13:27:30;;;;;;;28.70;16.23;;;8.80;84.80;;;;;;4085093;29;20052;-73
2024/02/28 13:29:32;;;;;;;27.40;15.68;;;8.80;85.00;;;;;;4085126;29;20169;-73
2024/02/28 13:31:34;;;;;;;29.90;17.38;;;8.80;85.20;;;;;;4084388;29;20059;-72
2024/02/28 13:33:36;;;;;;;27.55;16.38;;;8.90;85.30;;;;;;4084934;29;20048;-73
2024/02/28 13:35:38;;;;;;;28.30;15.68;;;8.90;84.60;;;;;;4084905;29;20059;-73
2024/02/28 13:37:40;;;;;;;28.58;15.75;;;8.90;84.40;;;;;;4084786;29;20048;-73
2024/02/28 13:39:43;;;;;;;27.98;15.48;;;9.00;85.20;;;;;;4084753;29;20051;-73
2024/02/28 13:41:45;;;;;;;29.92;16.60;;;9.00;84.70;;;;;;4084768;29;20051;-73
2024/02/28 13:43:47;;;;;;;27.50;16.38;;;9.00;84.40;;;;;;4084515;29;20449;-72
2024/02/28 13:45:51;;;;;;;27.10;16.30;;;8.90;84.90;;;;;;4084757;29;20051;-72
2024/02/28 13:47:52;;;;;;;31.30;17.73;;;8.90;85.20;;;;;;4084787;29;20059;-73
2024/02/28 13:49:53;;;;;;;29.30;17.08;;;8.90;85.20;;;;;;4084673;29;20055;-73
2024/02/28 13:51:55;;;;;;;29.30;17.02;;;8.80;85.30;;;;;;4084325;29;20054;-73
2024/02/28 13:53:57;;;;;;;28.67;16.60;;;8.80;85.20;;;;;;4084707;29;20489;-73
2024/02/28 13:56:00;;;;;;;30.27;18.00;;;8.80;85.30;;;;;;4084475;29;20458;-73
2024/02/28 13:58:01;;;;;;;27.83;17.20;;;8.80;85.80;;;;;;4084805;29;20159;-74
2024/02/28 14:00:06;;;;;;;29.92;17.23;;;8.80;85.70;;;;;;4084561;29;20473;-74
2024/02/28 14:02:10;;;;;;;27.70;15.77;;;8.80;85.60;;;;;;4084319;29;20103;-74
2024/02/28 14:04:12;;;;;;;26.98;15.88;;;8.80;85.70;;;;;;4084631;29;20785;-74
2024/02/28 14:06:14;;;;;;;29.08;17.10;;;8.80;85.20;;;;;;4084257;29;20047;-74
2024/02/28 14:08:17;;;;;;;27.25;15.93;;;8.80;85.00;;;;;;4084670;29;20462;-75
2024/02/28 14:10:18;;;;;;;28.00;17.42;;;8.80;85.20;;;;;;4084054;29;20052;-74
2024/02/28 14:12:22;;;;;;;29.80;17.70;;;8.90;85.40;;;;;;4085715;29;20052;-75
2024/02/28 14:14:23;;;;;;;28.98;16.92;;;8.90;85.60;;;;;;4086195;29;20052;-74
2024/02/28 14:16:25;;;;;;;30.90;18.13;;;8.80;85.40;;;;;;4086050;29;20083;-74
2024/02/28 14:18:27;;;;;;;28.02;17.02;;;8.90;85.30;;;;;;4085648;29;20048;-75
2024/02/28 14:20:29;;;;;;;31.63;17.20;;;8.90;85.10;;;;;;4086344;29;20051;-75
2024/02/28 14:22:32;;;;;;;30.88;17.33;;;8.90;85.10;;;;;;4086433;29;20052;-74
2024/02/28 14:24:33;;;;;;;28.88;16.85;;;8.90;84.80;;;;;;4086272;29;20047;-75
2024/02/28 14:26:35;;;;;;;30.90;17.38;;;8.90;85.00;;;;;;4086356;29;20118;-75
2024/02/28 14:28:38;;;;;;;31.58;18.25;;;8.90;85.40;;;;;;4086322;29;20051;-75
2024/02/28 14:30:39;;;;;;;31.70;18.35;;;8.90;85.70;;;;;;4085905;29;20110;-75
2024/02/28 14:32:42;;;;;;;29.23;17.38;;;8.90;85.30;;;;;;4086312;29;20099;-75
2024/02/28 14:34:45;;;;;;;28.70;17.30;;;9.00;85.00;;;;;;4086306;29;20082;-75
2024/02/28 14:36:49;;;;;;;31.90;18.30;;;9.00;85.20;;;;;;4086179;29;20103;-74
2024/02/28 14:38:50;;;;;;;55.92;32.20;;;8.90;85.30;;;;;;4085741;29;20147;-74
2024/02/28 14:40:52;;;;;;;37.55;21.55;;;9.00;85.50;;;;;;4084855;29;20094;-74
2024/02/28 14:42:54;;;;;;;35.45;18.60;;;9.00;85.30;;;;;;4086172;29;20464;-74
2024/02/28 14:44:57;;;;;;;30.08;16.60;;;8.90;85.20;;;;;;4086050;29;20106;-74
2024/02/28 14:46:59;;;;;;;31.70;18.50;;;8.90;85.40;;;;;;4086074;29;20108;-75
2024/02/28 14:49:00;;;;;;;33.13;19.48;;;8.90;85.50;;;;;;4085754;29;20047;-75
2024/02/28 14:51:02;;;;;;;35.55;20.10;;;8.90;86.00;;;;;;4085821;29;20060;-75
2024/02/28 14:53:04;;;;;;;31.75;19.27;;;8.90;86.00;;;;;;4086101;29;20047;-75
2024/02/28 14:55:08;;;;;;;34.42;18.58;;;9.00;86.10;;;;;;4085700;29;20047;-75
2024/02/28 14:57:10;;;;;;;32.22;19.10;;;9.00;85.70;;;;;;4085710;29;20098;-75
2024/02/28 14:59:12;;;;;;;31.08;18.63;;;9.00;85.60;;;;;;4085786;29;20084;-74
2024/02/28 15:01:15;;;;;;;32.33;18.45;;;8.90;85.40;;;;;;4085508;29;20056;-74
2024/02/28 15:03:17;;;;;;;33.42;18.88;;;8.90;85.70;;;;;;4085714;29;20047;-74
2024/02/28 15:05:19;;;;;;;32.33;18.85;;;8.90;85.80;;;;;;4085248;29;20383;-74
2024/02/28 15:07:21;;;;;;;32.00;18.65;;;8.90;85.90;;;;;;4085633;29;20051;-74
2024/02/28 15:09:22;;;;;;;31.50;18.10;;;8.80;86.40;;;;;;4085354;29;20059;-75
2024/02/28 15:11:24;;;;;;;31.73;18.67;;;8.90;86.90;;;;;;4084931;29;20052;-77
2024/02/28 15:13:26;;;;;;;34.55;19.67;;;8.90;86.70;;;;;;4085094;29;20048;-77
2024/02/28 15:15:28;;;;;;;34.10;19.27;;;8.90;86.80;;;;;;4085490;29;20043;-76
2024/02/28 15:17:32;;;;;;;33.35;18.92;;;8.90;86.60;;;;;;4085397;29;20135;-75
2024/02/28 15:19:34;;;;;;;34.55;20.02;;;8.90;86.60;;;;;;4085384;29;20079;-74
2024/02/28 15:21:36;;;;;;;34.85;19.88;;;8.90;86.50;;;;;;4084641;29;20103;-74
2024/02/28 15:23:38;;;;;;;35.13;19.88;;;8.80;85.80;;;;;;4085226;29;20111;-74
2024/02/28 15:25:40;;;;;;;34.90;19.73;;;8.80;86.30;;;;;;4085048;29;20047;-74
2024/02/28 15:27:41;;;;;;;31.95;17.90;;;8.80;86.10;;;;;;4075841;29;20595;-74
2024/02/28 15:29:43;;;;;;;32.10;18.50;;;8.80;86.40;;;;;;4078991;29;20055;-74
2024/02/28 15:31:45;;;;;;;34.47;19.30;;;8.80;86.70;;;;;;4082441;29;20079;-74
2024/02/28 15:33:49;;;;;;;33.75;19.60;;;8.80;86.20;;;;;;4082912;29;20051;-74
2024/02/28 15:35:50;;;;;;;32.15;18.85;;;8.80;86.90;;;;;;4083173;29;20461;-74
2024/02/28 15:37:52;;;;;;;33.22;18.35;;;8.80;86.30;;;;;;4081077;29;20052;-74
2024/02/28 15:39:55;;;;;;;32.80;19.30;;;8.80;86.10;;;;;;4071557;29;20059;-74
2024/02/28 15:41:57;;;;;;;32.28;19.15;;;8.80;86.50;;;;;;4071068;29;20048;-74
2024/02/28 15:43:59;;;;;;;31.98;18.92;;;8.80;86.00;;;;;;4073010;29;20099;-74
2024/02/28 15:46:01;;;;;;;31.33;18.38;;;8.70;86.20;;;;;;4068690;29;20056;-74
2024/02/28 15:48:03;;;;;;;32.63;19.00;;;8.70;86.40;;;;;;4071550;29;20110;-74
2024/02/28 15:50:09;;;;;;;37.58;22.17;;;8.70;86.50;;;;;;4067182;29;20052;-74
2024/02/28 15:52:10;;;;;;;42.92;23.33;;;8.70;86.60;;;;;;4073606;29;20086;-74
2024/02/28 15:54:11;;;;;;;36.50;20.25;;;8.70;86.60;;;;;;4067378;29;20084;-74
2024/02/28 15:56:13;;;;;;;35.75;19.98;;;8.70;86.60;;;;;;4073921;29;20447;-74
2024/02/28 15:58:15;;;;;;;32.55;19.17;;;8.70;86.90;;;;;;4067136;29;20056;-74
2024/02/28 16:00:17;;;;;;;33.92;19.48;;;8.70;86.50;;;;;;4068933;29;20107;-74
2024/02/28 16:02:18;;;;;;;37.17;19.95;;;8.70;86.80;;;;;;4072357;29;21833;-74
2024/02/28 16:04:19;;;;;;;33.00;19.70;;;8.70;86.50;;;;;;4068221;29;20063;-75
2024/02/28 16:06:24;;;;;;;35.85;20.38;;;8.70;86.60;;;;;;4078363;29;20043;-74
2024/02/28 16:08:26;;;;;;;31.67;18.23;;;8.70;87.00;;;;;;4069993;29;20481;-75
2024/02/28 16:10:27;;;;;;;33.42;19.02;;;8.80;87.00;;;;;;4066813;29;20052;-75
2024/02/28 16:12:29;;;;;;;33.03;18.58;;;8.80;87.10;;;;;;4073088;29;20051;-74
2024/02/28 16:14:31;;;;;;;34.58;18.67;;;8.80;86.60;;;;;;4072509;29;20052;-75
2024/02/28 16:16:33;;;;;;;33.08;18.35;;;8.70;86.60;;;;;;4073809;29;20103;-75
2024/02/28 16:18:34;;;;;;;33.35;18.55;;;8.70;86.80;;;;;;4067185;29;20175;-75
2024/02/28 16:20:36;;;;;;;32.00;19.05;;;8.70;87.20;;;;;;4072822;29;20051;-74
2024/02/28 16:22:40;;;;;;;33.25;19.17;;;8.70;86.40;;;;;;4068373;29;20044;-74
2024/02/28 16:24:42;;;;;;;33.35;19.02;;;8.60;87.30;;;;;;4067098;29;20082;-75
2024/02/28 16:26:43;;;;;;;34.53;18.38;;;8.70;87.10;;;;;;4079637;29;20044;-74
2024/02/28 16:28:45;;;;;;;31.10;18.30;;;8.70;87.30;;;;;;4069800;29;20088;-74